Phoenix, Arizona
Current Conditions -  °F | °C
As of 12:51 AM on Sunday 23 Nov 2014 (Local Time) from KPHX Reporting Station
Clear Clear  
Wind Chill: 54°   Ceiling: Unl
Heat Index: 54°   Visibility: 10mi
Dew Point: 35°   Wind: 6mph
Humidity: 49%   Direction: 100°E
Pressure: 29.92"   Gusts: NA
Location:  33.45°N, 112.08°W
Report Text: KPHX 230751Z 10005KT 10SM CLR 12/02 A2992 RMK AO2 SLP124 T01220017
Loading
Personal Weather Stations






























Interactive Weather Map New forecast layout! Learn more

10-Day Weather Forecast

Advertisements
Track Severe Weather on mobile